GMMX

Marrakech-Menara Airport

Airport
ICAO code
GMMX
IATA Code
RAK
Summary
ICAO Region
AFI
ICAO Territory
Location

Marrakesh, Marrakesh-Safi region

Serving
Marrakesh
Elevation
1545 ft
Coordinates
31° 36' 25" N , 8° 2' 11" W
KCC
Metar
Observation
GMMX 271130Z VRB02KT 9999 SCT030 25/16 Q1021 NOSIG
Station
Marrakech
Date/Time
2022-09-27 11:30:00
Wind speed
02 kts
Lowest cloud amount
scattered clouds
Temperature
25°C
Dew point
16°C
Humidity
57%
QNH
1021 hPa
Weather condition
n/a

Marrakesh Menara Airport is an international airport serving Marrakesh, the capital city of the Marrakesh-Safi region in Morocco.

Climatology

Warm semi-arid climate (Köppen climate classification BSh)

Runways

Designator Length Width Surface Rops
10/28 3100 45 ASP Yes/Yes

Airport map

Aerial View

SKYbrary Partners:

Safety knowledge contributed by: